createdAt,value
2022-09-23T00:01:38.902Z,66.89
2022-09-23T00:04:05.251Z,65.51
2022-09-23T00:06:31.561Z,65.76
2022-09-23T00:08:57.934Z,66.93
2022-09-23T00:11:25.593Z,66.65
2022-09-23T00:13:56.307Z,67.00
2022-09-23T00:16:24.644Z,66.88
2022-09-23T00:18:51.113Z,66.75
2022-09-23T00:21:18.166Z,66.74
2022-09-23T00:23:44.637Z,66.56
2022-09-23T00:26:12.899Z,68.24
2022-09-23T00:28:39.506Z,67.31
2022-09-23T00:31:10.554Z,67.46
2022-09-23T00:33:36.933Z,66.96
2022-09-23T00:36:04.916Z,67.29
2022-09-23T00:38:31.404Z,67.24
2022-09-23T00:40:58.468Z,65.80
2022-09-23T00:43:42.806Z,66.82
2022-09-23T00:46:10.095Z,65.72
2022-09-23T00:48:39.074Z,65.82
2022-09-23T00:51:06.998Z,67.06
2022-09-23T00:53:34.449Z,65.94
2022-09-23T00:56:03.006Z,66.22
2022-09-23T00:58:31.901Z,65.07
2022-09-23T01:01:04.801Z,64.90
2022-09-23T01:03:31.826Z,65.03
2022-09-23T01:05:58.319Z,65.37
2022-09-23T01:08:26.716Z,65.88
2022-09-23T01:11:06.038Z,65.37
2022-09-23T01:13:47.702Z,65.63
2022-09-23T01:16:18.466Z,66.02
2022-09-23T01:19:00.246Z,66.88
2022-09-23T01:21:47.792Z,66.27
2022-09-23T01:24:26.303Z,65.91
2022-09-23T01:27:09.859Z,66.46
2022-09-23T01:29:59.175Z,66.83
2022-09-23T01:32:44.005Z,65.43
2022-09-23T01:35:10.294Z,66.04
2022-09-23T01:37:45.632Z,64.97
2022-09-23T01:40:14.749Z,64.77
2022-09-23T01:42:53.548Z,64.70
2022-09-23T01:45:29.040Z,65.57
2022-09-23T01:48:02.416Z,63.93
2022-09-23T01:50:51.118Z,64.27
2022-09-23T01:53:39.063Z,64.00
2022-09-23T01:56:09.369Z,63.86
2022-09-23T01:58:39.732Z,63.87
2022-09-23T02:01:07.287Z,64.86
2022-09-23T02:03:59.646Z,65.25
2022-09-23T02:06:28.741Z,65.26
2022-09-23T02:09:00.418Z,64.84
2022-09-23T02:11:27.279Z,64.40
2022-09-23T02:14:00.145Z,65.09
2022-09-23T02:16:29.230Z,64.35
2022-09-23T02:18:58.621Z,63.96
2022-09-23T02:21:27.602Z,64.75
2022-09-23T02:23:58.289Z,64.94
2022-09-23T02:26:34.403Z,64.29
2022-09-23T02:29:03.528Z,64.21
2022-09-23T02:31:34.784Z,64.07
2022-09-23T02:34:18.447Z,65.60
2022-09-23T02:37:05.013Z,65.72
2022-09-23T02:39:36.984Z,65.46
2022-09-23T02:42:10.050Z,65.07
2022-09-23T02:44:36.642Z,64.90
2022-09-23T02:47:02.987Z,64.92
2022-09-23T02:49:30.721Z,64.14
2022-09-23T02:51:59.753Z,64.88
2022-09-23T02:54:27.815Z,65.17
2022-09-23T02:56:54.608Z,64.95
2022-09-23T02:59:22.264Z,65.28
2022-09-23T03:01:59.063Z,64.45
2022-09-23T03:04:43.985Z,66.07
2022-09-23T03:07:16.308Z,64.81
2022-09-23T03:09:48.704Z,64.52
2022-09-23T03:12:25.128Z,64.73
2022-09-23T03:14:55.118Z,64.88
2022-09-23T03:17:33.268Z,64.99
2022-09-23T03:20:16.312Z,64.97
2022-09-23T03:22:48.729Z,64.54
2022-09-23T03:25:16.705Z,64.10
2022-09-23T03:27:43.913Z,65.19
2022-09-23T03:30:10.804Z,64.64
2022-09-23T03:32:38.316Z,64.88
2022-09-23T03:35:05.776Z,65.33
2022-09-23T03:37:35.745Z,65.28
2022-09-23T03:40:22.637Z,64.41
2022-09-23T03:42:49.118Z,64.32
2022-09-23T03:45:18.443Z,65.15
2022-09-23T03:47:45.125Z,64.76
2022-09-23T03:50:13.382Z,64.09
2022-09-23T03:52:40.076Z,65.00
2022-09-23T03:55:06.967Z,64.05
2022-09-23T03:57:33.468Z,64.76
2022-09-23T03:59:59.758Z,64.42
2022-09-23T04:02:26.786Z,64.99
2022-09-23T04:04:53.169Z,64.67
2022-09-23T04:07:19.518Z,64.40
2022-09-23T04:09:45.862Z,63.95
2022-09-23T04:12:13.363Z,64.60
2022-09-23T04:14:39.633Z,63.97
2022-09-23T04:17:05.974Z,64.67
2022-09-23T04:19:32.357Z,63.81
2022-09-23T04:21:58.654Z,64.76
2022-09-23T04:24:24.995Z,64.97
2022-09-23T04:26:52.685Z,63.87
2022-09-23T04:29:19.482Z,63.95
2022-09-23T04:31:45.886Z,63.94
2022-09-23T04:34:12.687Z,64.63
2022-09-23T04:36:38.994Z,64.43
2022-09-23T04:39:05.601Z,63.77
2022-09-23T04:41:31.974Z,64.21
2022-09-23T04:43:58.355Z,63.70
2022-09-23T04:46:24.953Z,65.05
2022-09-23T04:48:51.363Z,64.96
2022-09-23T04:51:21.514Z,65.12
2022-09-23T04:53:50.067Z,65.00
2022-09-23T04:56:20.443Z,65.51
2022-09-23T04:58:46.730Z,64.73
2022-09-23T05:01:18.927Z,64.76
2022-09-23T05:03:45.961Z,64.69
2022-09-23T05:06:13.836Z,65.13
2022-09-23T05:08:40.780Z,65.00
2022-09-23T05:11:07.203Z,65.31
2022-09-23T05:13:33.790Z,65.67
2022-09-23T05:16:01.275Z,65.84
2022-09-23T05:18:31.154Z,66.21
2022-09-23T05:20:57.449Z,66.29
2022-09-23T05:23:24.190Z,65.43
2022-09-23T05:25:56.457Z,66.36
2022-09-23T05:28:22.822Z,65.84
2022-09-23T05:30:49.153Z,66.54
2022-09-23T05:33:15.467Z,66.68
2022-09-23T05:35:46.515Z,67.49
2022-09-23T05:38:12.817Z,67.12
2022-09-23T05:40:39.183Z,68.17
2022-09-23T05:43:05.518Z,68.63
2022-09-23T05:45:31.998Z,68.07
2022-09-23T05:47:58.853Z,69.06
2022-09-23T05:50:25.124Z,69.36
2022-09-23T05:52:52.150Z,70.30
2022-09-23T05:55:18.532Z,70.50
2022-09-23T05:57:44.969Z,70.91
2022-09-23T06:00:11.494Z,71.80
2022-09-23T06:02:37.857Z,73.50
2022-09-23T06:05:04.424Z,74.16
2022-09-23T06:07:31.562Z,74.50
2022-09-23T06:09:57.897Z,74.91
2022-09-23T06:12:24.688Z,74.83
2022-09-23T06:14:51.016Z,75.52
2022-09-23T06:17:17.333Z,75.99
2022-09-23T06:19:43.625Z,75.56
2022-09-23T06:22:10.971Z,75.80
2022-09-23T06:24:37.293Z,76.40
2022-09-23T06:27:03.681Z,75.57
2022-09-23T06:29:30.799Z,76.26
2022-09-23T06:31:59.603Z,75.64
2022-09-23T06:34:25.984Z,75.98
2022-09-23T06:36:53.698Z,76.48
2022-09-23T06:39:20.004Z,75.15
2022-09-23T06:41:46.331Z,75.11
2022-09-23T06:44:13.367Z,76.78
2022-09-23T06:46:39.760Z,77.17
2022-09-23T06:49:06.212Z,76.93
2022-09-23T06:51:32.562Z,79.11
2022-09-23T06:53:59.010Z,79.19
2022-09-23T06:56:25.415Z,79.94
2022-09-23T06:58:52.076Z,80.41
2022-09-23T07:01:19.070Z,80.55
2022-09-23T07:03:46.203Z,81.12
2022-09-23T07:06:12.808Z,82.45
2022-09-23T07:08:41.977Z,82.98
2022-09-23T07:11:13.180Z,83.15
2022-09-23T07:13:41.089Z,84.00
2022-09-23T07:16:08.086Z,83.19
2022-09-23T07:18:37.182Z,82.82
2022-09-23T07:21:06.911Z,83.77
2022-09-23T07:23:33.532Z,84.73
2022-09-23T07:26:00.197Z,84.29
2022-09-23T07:28:29.062Z,84.10
2022-09-23T07:31:00.300Z,84.88
2022-09-23T07:33:32.414Z,85.01
2022-09-23T07:35:59.599Z,85.26
2022-09-23T07:38:29.832Z,83.94
2022-09-23T07:41:00.559Z,85.88
2022-09-23T07:43:27.683Z,85.45
2022-09-23T07:45:54.478Z,84.70
2022-09-23T07:48:22.211Z,84.33
2022-09-23T07:50:48.489Z,83.52
2022-09-23T07:53:15.468Z,84.35
2022-09-23T07:55:41.797Z,82.96
2022-09-23T07:58:08.092Z,82.05
2022-09-23T08:00:35.666Z,82.39
2022-09-23T08:03:02.754Z,80.96
2022-09-23T08:05:29.116Z,79.34
2022-09-23T08:07:55.406Z,80.22
2022-09-23T08:10:21.842Z,79.81
2022-09-23T08:12:48.856Z,80.21
2022-09-23T08:15:17.459Z,79.60
2022-09-23T08:17:44.132Z,78.67
2022-09-23T08:20:31.092Z,79.85
2022-09-23T08:22:57.431Z,78.67
2022-09-23T08:25:23.751Z,78.31
2022-09-23T08:27:50.034Z,78.56
2022-09-23T08:30:16.342Z,78.08
2022-09-23T08:32:42.822Z,77.17
2022-09-23T08:35:09.368Z,77.41
2022-09-23T08:37:35.651Z,77.48
2022-09-23T08:40:02.184Z,77.04
2022-09-23T08:42:32.274Z,76.66
2022-09-23T08:45:00.716Z,76.37
2022-09-23T08:47:50.619Z,76.48
2022-09-23T08:50:21.564Z,76.13
2022-09-23T08:52:52.679Z,75.39
2022-09-23T08:55:22.108Z,75.60
2022-09-23T08:58:24.511Z,75.23
2022-09-23T09:01:10.243Z,74.83
2022-09-23T09:03:48.945Z,74.44
2022-09-23T09:06:18.438Z,73.69
2022-09-23T09:08:46.915Z,73.65
2022-09-23T09:11:14.597Z,73.35
2022-09-23T09:13:53.380Z,73.57
2022-09-23T09:16:55.636Z,73.95
2022-09-23T09:19:26.874Z,73.38
2022-09-23T09:21:53.809Z,73.61
2022-09-23T09:24:30.597Z,72.84
2022-09-23T09:26:56.989Z,72.47
2022-09-23T09:29:42.137Z,72.36
2022-09-23T09:32:15.051Z,72.37
2022-09-23T09:34:47.252Z,71.75
2022-09-23T09:37:25.597Z,71.38
2022-09-23T09:39:51.889Z,71.87
2022-09-23T09:42:26.930Z,72.22
2022-09-23T09:44:59.695Z,71.95
2022-09-23T09:47:46.652Z,71.32
2022-09-23T09:50:21.566Z,70.48
2022-09-23T09:52:48.571Z,70.19
2022-09-23T09:55:17.733Z,69.88
2022-09-23T09:57:46.271Z,70.25
2022-09-23T10:00:18.886Z,69.34
2022-09-23T10:02:45.339Z,69.19
2022-09-23T10:05:31.910Z,69.44
2022-09-23T10:08:18.471Z,68.74
2022-09-23T10:10:54.726Z,68.28
2022-09-23T10:13:23.815Z,67.24
2022-09-23T10:15:55.733Z,66.74
2022-09-23T10:18:34.426Z,67.60
2022-09-23T10:21:14.331Z,66.61
2022-09-23T10:23:44.647Z,65.89
2022-09-23T10:26:12.162Z,65.98
2022-09-23T10:28:41.162Z,65.44
2022-09-23T10:31:10.720Z,66.00
2022-09-23T10:33:41.523Z,66.49
2022-09-23T10:36:11.002Z,64.28
2022-09-23T10:38:37.396Z,64.17
2022-09-23T10:41:23.623Z,65.34
2022-09-23T10:44:29.749Z,63.15
2022-09-23T10:47:04.634Z,64.12
2022-09-23T10:49:33.836Z,63.62
2022-09-23T10:52:18.842Z,63.79
2022-09-23T10:54:57.331Z,63.10
2022-09-23T10:57:40.485Z,64.36
2022-09-23T11:00:17.664Z,63.36
2022-09-23T11:02:44.144Z,63.50
2022-09-23T11:05:11.196Z,63.50
2022-09-23T11:07:47.412Z,62.53
2022-09-23T11:10:44.509Z,64.01
2022-09-23T11:13:13.134Z,64.09
2022-09-23T11:15:45.257Z,63.82
2022-09-23T11:18:20.594Z,64.41
2022-09-23T11:21:06.132Z,64.68
2022-09-23T11:23:48.294Z,64.81
2022-09-23T11:26:33.417Z,64.15
2022-09-23T11:29:18.619Z,64.10
2022-09-23T11:31:50.779Z,63.54
2022-09-23T11:34:26.477Z,63.54
2022-09-23T11:36:57.524Z,63.00
2022-09-23T11:39:32.535Z,62.22
2022-09-23T11:42:00.187Z,62.64
2022-09-23T11:44:30.017Z,63.55
2022-09-23T11:46:59.765Z,63.56
2022-09-23T11:49:40.060Z,63.35
2022-09-23T11:52:10.485Z,62.83
2022-09-23T11:54:51.469Z,62.28
2022-09-23T11:57:28.796Z,62.38
2022-09-23T12:00:00.942Z,62.50
2022-09-23T12:03:02.189Z,61.33
2022-09-23T12:05:34.446Z,61.88
2022-09-23T12:08:19.312Z,61.49
2022-09-23T12:10:52.839Z,61.93
2022-09-23T12:13:37.892Z,60.96
2022-09-23T12:16:07.243Z,62.70
2022-09-23T12:18:53.791Z,62.13
2022-09-23T12:21:39.114Z,60.21
2022-09-23T12:24:07.023Z,61.28
2022-09-23T12:26:34.204Z,61.33
2022-09-23T12:29:02.046Z,60.77
2022-09-23T12:31:33.846Z,61.23
2022-09-23T12:34:05.477Z,60.60
2022-09-23T12:36:36.596Z,59.73
2022-09-23T12:39:07.458Z,59.94
2022-09-23T12:41:40.200Z,59.07
2022-09-23T12:44:15.739Z,59.48
2022-09-23T12:46:42.835Z,60.19
2022-09-23T12:49:27.181Z,60.11
2022-09-23T12:52:13.677Z,59.43
2022-09-23T12:54:40.837Z,59.94
2022-09-23T12:57:14.363Z,59.39
2022-09-23T12:59:57.441Z,59.44
2022-09-23T13:02:32.917Z,59.50
2022-09-23T13:05:21.479Z,59.42
2022-09-23T13:07:48.964Z,60.78
2022-09-23T13:10:17.903Z,60.04
2022-09-23T13:12:45.477Z,60.59
2022-09-23T13:15:33.004Z,60.70
2022-09-23T13:18:17.867Z,59.58
2022-09-23T13:20:45.925Z,59.62
2022-09-23T13:23:33.291Z,60.17
2022-09-23T13:26:01.478Z,60.45
2022-09-23T13:28:37.059Z,61.02
2022-09-23T13:31:05.528Z,61.17
2022-09-23T13:33:46.028Z,60.51
2022-09-23T13:36:19.184Z,58.92
2022-09-23T13:38:48.666Z,59.97
2022-09-23T13:41:17.643Z,60.13
2022-09-23T13:43:47.782Z,59.35
2022-09-23T13:46:17.354Z,60.20
2022-09-23T13:48:45.183Z,59.03
2022-09-23T13:51:15.945Z,59.94
2022-09-23T13:53:42.289Z,59.61
2022-09-23T13:56:13.079Z,60.06
2022-09-23T13:58:40.183Z,58.46
2022-09-23T14:01:10.349Z,58.34
2022-09-23T14:03:38.387Z,58.46
2022-09-23T14:06:07.446Z,58.33
2022-09-23T14:08:33.791Z,59.75
2022-09-23T14:11:00.632Z,59.26
2022-09-23T14:13:32.073Z,58.03
2022-09-23T14:15:59.797Z,58.33
2022-09-23T14:18:27.310Z,56.29
2022-09-23T14:20:53.769Z,58.48
2022-09-23T14:23:20.133Z,58.54
2022-09-23T14:25:46.892Z,58.28
2022-09-23T14:28:17.419Z,58.08
2022-09-23T14:30:46.107Z,59.66
2022-09-23T14:33:17.104Z,58.56
2022-09-23T14:35:46.501Z,58.95
2022-09-23T14:38:36.119Z,59.42
2022-09-23T14:41:17.354Z,59.89
2022-09-23T14:44:10.017Z,60.31
2022-09-23T14:46:37.846Z,59.73
2022-09-23T14:49:06.989Z,59.35
2022-09-23T14:51:37.316Z,60.92
2022-09-23T14:54:23.200Z,60.25
2022-09-23T14:56:49.539Z,60.76
2022-09-23T14:59:32.247Z,61.36
2022-09-23T15:01:58.619Z,60.30
2022-09-23T15:04:24.903Z,60.42
2022-09-23T15:06:53.983Z,61.16
2022-09-23T15:09:37.676Z,62.07
2022-09-23T15:12:22.288Z,62.90
2022-09-23T15:14:50.878Z,61.75
2022-09-23T15:17:37.462Z,61.64
2022-09-23T15:20:06.680Z,61.32
2022-09-23T15:22:42.580Z,62.95
2022-09-23T15:25:29.215Z,64.65
2022-09-23T15:27:56.588Z,64.49
2022-09-23T15:30:23.389Z,65.30
2022-09-23T15:32:49.708Z,64.06
2022-09-23T15:35:18.788Z,65.53
2022-09-23T15:37:46.649Z,66.27
2022-09-23T15:40:16.029Z,66.04
2022-09-23T15:42:47.038Z,67.81
2022-09-23T15:45:13.888Z,67.83
2022-09-23T15:47:40.280Z,69.29
2022-09-23T15:50:07.208Z,69.59
2022-09-23T15:52:34.606Z,71.13
2022-09-23T15:55:01.825Z,69.64
2022-09-23T15:57:28.134Z,68.70
2022-09-23T15:59:58.284Z,68.88
2022-09-23T16:02:24.767Z,69.51
2022-09-23T16:04:52.511Z,70.32
2022-09-23T16:07:19.764Z,71.39
2022-09-23T16:09:46.216Z,72.16
2022-09-23T16:12:12.597Z,71.44
2022-09-23T16:14:38.896Z,71.35
2022-09-23T16:17:05.359Z,71.30
2022-09-23T16:19:34.172Z,71.64
2022-09-23T16:22:00.474Z,71.77
2022-09-23T16:24:28.276Z,71.79
2022-09-23T16:26:59.730Z,71.49
2022-09-23T16:29:27.292Z,70.66
2022-09-23T16:31:53.834Z,71.17
2022-09-23T16:34:20.569Z,70.90
2022-09-23T16:36:47.011Z,72.23
2022-09-23T16:39:13.884Z,70.74
2022-09-23T16:41:41.017Z,70.42
2022-09-23T16:44:10.529Z,70.44
2022-09-23T16:46:36.909Z,70.00
2022-09-23T16:49:03.384Z,69.80
2022-09-23T16:51:30.950Z,69.83
2022-09-23T16:53:58.630Z,70.77
2022-09-23T16:56:28.718Z,71.58
2022-09-23T16:58:55.961Z,71.46
2022-09-23T17:01:42.496Z,72.04
2022-09-23T17:04:10.441Z,72.03
2022-09-23T17:06:42.023Z,71.48
2022-09-23T17:09:08.524Z,71.93
2022-09-23T17:11:35.161Z,71.75
2022-09-23T17:14:01.459Z,72.00
2022-09-23T17:16:29.782Z,70.65
2022-09-23T17:18:56.621Z,70.97
2022-09-23T17:21:27.010Z,70.85
2022-09-23T17:23:57.108Z,70.99
2022-09-23T17:26:24.525Z,71.02
2022-09-23T17:28:51.601Z,71.56
2022-09-23T17:31:18.274Z,70.54
2022-09-23T17:33:44.830Z,71.25
2022-09-23T17:36:12.479Z,71.39
2022-09-23T17:38:39.281Z,71.29
2022-09-23T17:41:06.555Z,70.83
2022-09-23T17:43:33.369Z,71.41
2022-09-23T17:46:06.884Z,70.94
2022-09-23T17:48:34.271Z,70.87
2022-09-23T17:51:04.516Z,70.94
2022-09-23T17:53:32.069Z,70.81
2022-09-23T17:56:05.414Z,70.87
2022-09-23T17:58:36.139Z,71.10
2022-09-23T18:01:02.994Z,71.35
2022-09-23T18:03:30.208Z,71.57
2022-09-23T18:06:13.334Z,71.63
2022-09-23T18:08:40.821Z,71.82
2022-09-23T18:11:13.046Z,72.06
2022-09-23T18:13:39.441Z,72.18
2022-09-23T18:16:06.011Z,72.18
2022-09-23T18:18:32.463Z,71.84
2022-09-23T18:21:05.204Z,71.92
2022-09-23T18:23:31.582Z,72.41
2022-09-23T18:25:58.026Z,72.19
2022-09-23T18:28:24.372Z,72.63
2022-09-23T18:30:54.292Z,71.72
2022-09-23T18:33:21.258Z,71.77
2022-09-23T18:35:47.688Z,71.63
2022-09-23T18:38:14.547Z,71.74
2022-09-23T18:40:51.812Z,72.37
2022-09-23T18:43:19.814Z,72.37
2022-09-23T18:45:54.219Z,72.48
2022-09-23T18:48:38.979Z,72.33
2022-09-23T18:51:06.762Z,72.53
2022-09-23T18:53:34.357Z,72.38
2022-09-23T18:56:05.127Z,72.38
2022-09-23T18:58:32.348Z,72.66
2022-09-23T19:01:02.849Z,72.88
2022-09-23T19:03:29.368Z,73.17
2022-09-23T19:06:00.835Z,73.35
2022-09-23T19:08:27.200Z,73.34
2022-09-23T19:11:03.765Z,73.13
2022-09-23T19:13:30.887Z,73.61
2022-09-23T19:16:14.233Z,73.13
2022-09-23T19:18:41.762Z,73.72
2022-09-23T19:21:09.690Z,73.54
2022-09-23T19:23:36.119Z,73.54
2022-09-23T19:26:04.308Z,73.90
2022-09-23T19:28:31.062Z,73.90
2022-09-23T19:30:57.705Z,74.01
2022-09-23T19:33:25.672Z,74.11
2022-09-23T19:35:53.474Z,73.92
2022-09-23T19:38:21.281Z,73.58
2022-09-23T19:40:50.028Z,73.75
2022-09-23T19:43:17.707Z,73.50
2022-09-23T19:45:44.359Z,73.72
2022-09-23T19:48:10.728Z,73.68
2022-09-23T19:50:37.521Z,73.33
2022-09-23T19:53:05.552Z,73.74
2022-09-23T19:55:33.669Z,74.12
2022-09-23T19:57:59.961Z,73.59
2022-09-23T20:00:27.509Z,73.71
2022-09-23T20:02:54.624Z,73.38
2022-09-23T20:05:21.217Z,73.13
2022-09-23T20:07:47.528Z,73.43
2022-09-23T20:10:14.164Z,73.41
2022-09-23T20:12:43.927Z,73.85
2022-09-23T20:15:11.844Z,73.59
2022-09-23T20:17:39.990Z,73.75
2022-09-23T20:20:07.470Z,73.59
2022-09-23T20:22:33.985Z,73.64
2022-09-23T20:25:01.842Z,73.19
2022-09-23T20:27:31.065Z,73.67
2022-09-23T20:29:57.800Z,74.03
2022-09-23T20:32:26.384Z,73.37
2022-09-23T20:34:53.441Z,73.31
2022-09-23T20:37:20.950Z,73.18
2022-09-23T20:39:48.020Z,73.20
2022-09-23T20:42:14.611Z,73.59
2022-09-23T20:44:40.952Z,73.44
2022-09-23T20:47:07.391Z,73.43
2022-09-23T20:49:34.325Z,73.36
2022-09-23T20:52:02.624Z,73.71
2022-09-23T20:54:32.233Z,73.77
2022-09-23T20:56:58.698Z,73.95
2022-09-23T20:59:25.296Z,74.95
2022-09-23T21:01:55.413Z,74.50
2022-09-23T21:04:22.476Z,74.97
2022-09-23T21:06:49.237Z,75.00
2022-09-23T21:09:15.500Z,75.43
2022-09-23T21:11:41.796Z,75.59
2022-09-23T21:14:08.333Z,75.39
2022-09-23T21:16:34.804Z,76.13
2022-09-23T21:19:02.858Z,75.91
2022-09-23T21:21:29.200Z,76.59
2022-09-23T21:24:07.066Z,76.31
2022-09-23T21:26:47.127Z,76.76
2022-09-23T21:29:13.808Z,77.31
2022-09-23T21:31:40.157Z,77.26
2022-09-23T21:34:14.414Z,77.82
2022-09-23T21:36:43.008Z,77.70
2022-09-23T21:39:10.422Z,77.89
2022-09-23T21:41:36.886Z,78.45
2022-09-23T21:44:04.580Z,79.16
2022-09-23T21:46:33.674Z,78.56
2022-09-23T21:49:03.257Z,79.32
2022-09-23T21:51:29.586Z,79.61
2022-09-23T21:53:57.186Z,79.28
2022-09-23T21:56:24.884Z,79.04
2022-09-23T21:58:52.777Z,79.72
2022-09-23T22:01:23.251Z,80.14
2022-09-23T22:03:52.671Z,79.93
2022-09-23T22:06:21.392Z,79.79
2022-09-23T22:08:49.327Z,80.28
2022-09-23T22:11:43.550Z,80.31
2022-09-23T22:14:10.995Z,79.96
2022-09-23T22:16:37.353Z,79.95
2022-09-23T22:19:06.812Z,80.22
2022-09-23T22:21:34.537Z,79.40
2022-09-23T22:24:01.671Z,79.77
2022-09-23T22:26:29.599Z,78.77
2022-09-23T22:29:14.563Z,78.17
2022-09-23T22:31:59.332Z,77.50
2022-09-23T22:34:48.619Z,77.09
2022-09-23T22:37:15.880Z,76.48
2022-09-23T22:39:42.173Z,76.46
2022-09-23T22:42:08.527Z,76.05
2022-09-23T22:44:34.913Z,75.92
2022-09-23T22:47:01.340Z,75.61
2022-09-23T22:49:27.766Z,75.49
2022-09-23T22:51:54.105Z,74.58
2022-09-23T22:54:23.594Z,74.75
2022-09-23T22:56:50.743Z,74.82
2022-09-23T22:59:17.137Z,75.10
2022-09-23T23:01:43.737Z,75.20
2022-09-23T23:04:10.629Z,75.14
2022-09-23T23:06:37.110Z,75.15
2022-09-23T23:09:08.077Z,75.36
2022-09-23T23:11:34.395Z,76.20
2022-09-23T23:14:02.288Z,75.72
2022-09-23T23:16:30.360Z,76.10
2022-09-23T23:18:56.685Z,76.22
2022-09-23T23:21:23.004Z,76.16
2022-09-23T23:23:50.588Z,76.00
2022-09-23T23:26:25.261Z,76.88
2022-09-23T23:28:52.863Z,76.61
2022-09-23T23:31:20.519Z,76.67
2022-09-23T23:33:46.972Z,77.34
2022-09-23T23:36:14.467Z,77.27
2022-09-23T23:38:42.140Z,77.49
2022-09-23T23:41:11.019Z,77.46
2022-09-23T23:43:38.516Z,77.65
2022-09-23T23:46:06.560Z,77.88
2022-09-23T23:48:34.351Z,77.63
2022-09-23T23:51:01.608Z,77.40
2022-09-23T23:53:32.105Z,77.28
2022-09-23T23:56:00.793Z,77.95
2022-09-23T23:58:27.822Z,78.11
